createdAt,value
2023-03-16T00:00:04.011Z,59.00
2023-03-16T00:02:30.960Z,41.23
2023-03-16T00:04:57.911Z,42.77
2023-03-16T00:07:25.154Z,28.97
2023-03-16T00:09:54.714Z,36.37
2023-03-16T00:12:22.795Z,40.73
2023-03-16T00:14:50.220Z,46.37
2023-03-16T00:17:19.826Z,27.80
2023-03-16T00:19:55.578Z,28.43
2023-03-16T00:22:25.169Z,30.20
2023-03-16T00:24:53.007Z,14.43
2023-03-16T00:27:20.166Z,26.83
2023-03-16T00:29:49.023Z,44.90
2023-03-16T00:32:21.237Z,16.57
2023-03-16T00:34:48.319Z,24.00
2023-03-16T00:37:17.466Z,23.33
2023-03-16T00:39:46.022Z,20.43
2023-03-16T00:42:15.308Z,36.83
2023-03-16T00:44:42.986Z,30.00
2023-03-16T00:47:14.410Z,29.57
2023-03-16T00:49:43.751Z,23.53
2023-03-16T00:52:14.960Z,20.97
2023-03-16T00:54:47.055Z,20.60
2023-03-16T00:57:18.428Z,46.53
2023-03-16T00:59:46.557Z,36.57
2023-03-16T01:02:15.008Z,14.77
2023-03-16T01:04:42.593Z,37.23
2023-03-16T01:07:12.676Z,41.93
2023-03-16T01:09:40.902Z,22.37
2023-03-16T01:12:19.497Z,60.10
2023-03-16T01:14:47.094Z,84.23
2023-03-16T01:17:16.096Z,57.03
2023-03-16T01:19:43.488Z,55.17
2023-03-16T01:22:11.770Z,54.00
2023-03-16T01:24:39.882Z,50.53
2023-03-16T01:27:07.913Z,40.17
2023-03-16T01:29:35.333Z,67.13
2023-03-16T01:32:04.389Z,72.23
2023-03-16T01:34:32.099Z,55.50
2023-03-16T01:36:59.575Z,95.37
2023-03-16T01:39:26.999Z,57.27
2023-03-16T01:41:54.272Z,32.97
2023-03-16T01:44:28.307Z,57.10
2023-03-16T01:46:55.342Z,79.63
2023-03-16T01:49:25.312Z,58.53
2023-03-16T01:52:02.814Z,84.13
2023-03-16T01:54:47.183Z,32.97
2023-03-16T01:57:22.636Z,46.87
2023-03-16T02:00:19.251Z,54.30
2023-03-16T02:02:56.666Z,42.37
2023-03-16T02:05:43.563Z,48.23
2023-03-16T02:08:12.526Z,24.07
2023-03-16T02:10:41.072Z,44.97
2023-03-16T02:13:08.286Z,27.27
2023-03-16T02:15:36.224Z,70.57
2023-03-16T02:18:04.351Z,56.10
2023-03-16T02:20:42.648Z,83.83
2023-03-16T02:23:18.602Z,77.57
2023-03-16T02:25:57.595Z,38.47
2023-03-16T02:28:33.399Z,38.23
2023-03-16T02:31:02.254Z,70.00
2023-03-16T02:33:30.002Z,170.77
2023-03-16T02:35:56.922Z,63.27
2023-03-16T02:38:24.099Z,47.73
2023-03-16T02:41:10.318Z,75.30
2023-03-16T02:43:39.713Z,165.83
2023-03-16T02:46:07.652Z,93.63
2023-03-16T02:48:34.568Z,128.53
2023-03-16T02:51:01.889Z,129.33
2023-03-16T02:53:28.794Z,128.67
2023-03-16T02:55:55.925Z,43.20
2023-03-16T02:58:22.831Z,68.50
2023-03-16T03:00:49.802Z,43.27
2023-03-16T03:03:16.903Z,165.90
2023-03-16T03:05:44.029Z,78.93
2023-03-16T03:08:11.361Z,33.13
2023-03-16T03:10:38.391Z,97.50
2023-03-16T03:13:07.441Z,156.40
2023-03-16T03:15:35.525Z,121.53
2023-03-16T03:18:02.885Z,52.67
2023-03-16T03:20:30.477Z,81.17
2023-03-16T03:22:57.808Z,74.23
2023-03-16T03:25:24.907Z,45.20
2023-03-16T03:27:54.668Z,31.07
2023-03-16T03:30:24.585Z,39.83
2023-03-16T03:32:52.612Z,82.07
2023-03-16T03:35:20.199Z,96.67
2023-03-16T03:37:47.584Z,58.07
2023-03-16T03:40:17.536Z,32.17
2023-03-16T03:42:44.561Z,63.60
2023-03-16T03:45:13.235Z,78.87
2023-03-16T03:47:43.897Z,51.50
2023-03-16T03:50:13.980Z,70.17
2023-03-16T03:52:41.447Z,39.60
2023-03-16T03:55:09.715Z,46.27
2023-03-16T03:57:36.756Z,56.27
2023-03-16T04:00:10.928Z,43.50
2023-03-16T04:02:38.818Z,56.63
2023-03-16T04:05:06.920Z,68.87
2023-03-16T04:07:33.969Z,28.10
2023-03-16T04:10:01.140Z,34.13
2023-03-16T04:12:28.268Z,39.97
2023-03-16T04:14:55.215Z,35.67
2023-03-16T04:17:22.467Z,29.93
2023-03-16T04:19:49.568Z,36.97
2023-03-16T04:22:17.298Z,44.30
2023-03-16T04:24:44.850Z,36.13
2023-03-16T04:27:12.405Z,23.37
2023-03-16T04:29:39.565Z,30.70
2023-03-16T04:32:07.735Z,36.90
2023-03-16T04:34:34.853Z,39.80
2023-03-16T04:37:02.493Z,40.07
2023-03-16T04:39:29.541Z,26.40
2023-03-16T04:41:56.556Z,38.07
2023-03-16T04:44:25.952Z,34.57
2023-03-16T04:46:53.034Z,36.20
2023-03-16T04:49:19.957Z,42.27
2023-03-16T04:51:46.949Z,30.73
2023-03-16T04:54:13.871Z,19.57
2023-03-16T04:56:41.660Z,25.60
2023-03-16T04:59:08.779Z,37.20
2023-03-16T05:01:35.802Z,41.47
2023-03-16T05:04:02.741Z,21.90
2023-03-16T05:06:29.899Z,39.60
2023-03-16T05:08:58.855Z,24.37
2023-03-16T05:11:25.820Z,33.23
2023-03-16T05:13:52.770Z,45.30
2023-03-16T05:16:20.330Z,43.50
2023-03-16T05:18:47.313Z,39.57
2023-03-16T05:21:14.239Z,68.83
2023-03-16T05:23:41.253Z,27.53
2023-03-16T05:26:08.884Z,31.70
2023-03-16T05:28:35.876Z,29.43
2023-03-16T05:31:03.983Z,40.40
2023-03-16T05:33:30.977Z,27.00
2023-03-16T05:35:58.258Z,35.13
2023-03-16T05:38:25.925Z,32.53
2023-03-16T05:40:53.271Z,38.47
2023-03-16T05:43:21.338Z,25.77
2023-03-16T05:45:48.825Z,34.60
2023-03-16T05:48:15.812Z,32.63
2023-03-16T05:50:42.870Z,30.80
2023-03-16T05:53:10.152Z,31.20
2023-03-16T05:55:37.088Z,47.37
2023-03-16T05:58:05.724Z,61.63
2023-03-16T06:00:33.245Z,34.47
2023-03-16T06:03:01.749Z,33.03
2023-03-16T06:05:29.901Z,31.10
2023-03-16T06:07:56.894Z,34.17
2023-03-16T06:10:24.394Z,39.57
2023-03-16T06:12:51.728Z,37.63
2023-03-16T06:15:19.260Z,38.27
2023-03-16T06:17:46.194Z,33.30
2023-03-16T06:20:13.970Z,37.40
2023-03-16T06:22:42.760Z,31.77
2023-03-16T06:25:12.440Z,34.23
2023-03-16T06:27:40.196Z,57.60
2023-03-16T06:30:10.301Z,33.97
2023-03-16T06:32:38.057Z,40.90
2023-03-16T06:35:05.905Z,32.20
2023-03-16T06:37:33.177Z,36.73
2023-03-16T06:40:00.414Z,32.93
2023-03-16T06:42:27.650Z,35.67
2023-03-16T06:44:54.586Z,31.27
2023-03-16T06:47:21.819Z,39.03
2023-03-16T06:49:51.299Z,33.90
2023-03-16T06:52:18.285Z,33.33
2023-03-16T06:54:45.588Z,35.67
2023-03-16T06:57:12.695Z,33.33
2023-03-16T06:59:39.817Z,34.47
2023-03-16T07:02:07.220Z,38.33
2023-03-16T07:04:34.312Z,43.40
2023-03-16T07:07:01.544Z,39.10
2023-03-16T07:09:29.357Z,36.50
2023-03-16T07:11:56.377Z,37.57
2023-03-16T07:14:26.248Z,38.43
2023-03-16T07:16:53.329Z,32.17
2023-03-16T07:19:20.473Z,23.53
2023-03-16T07:21:47.404Z,24.23
2023-03-16T07:24:15.410Z,19.87
2023-03-16T07:26:42.613Z,20.27
2023-03-16T07:29:10.138Z,17.67
2023-03-16T07:31:37.227Z,17.90
2023-03-16T07:34:04.710Z,18.27
2023-03-16T07:36:32.221Z,15.87
2023-03-16T07:38:59.141Z,16.90
2023-03-16T07:41:26.273Z,17.27
2023-03-16T07:43:53.506Z,14.07
2023-03-16T07:46:21.301Z,18.93
2023-03-16T07:48:48.357Z,23.13
2023-03-16T07:51:15.550Z,14.83
2023-03-16T07:53:42.546Z,18.60
2023-03-16T07:56:09.857Z,15.47
2023-03-16T07:58:37.006Z,14.17
2023-03-16T08:01:04.319Z,12.90
2023-03-16T08:03:32.153Z,13.97
2023-03-16T08:05:59.441Z,16.57
2023-03-16T08:08:26.507Z,13.90
2023-03-16T08:10:55.621Z,17.53
2023-03-16T08:13:24.001Z,14.43
2023-03-16T08:16:02.139Z,14.40
2023-03-16T08:18:30.303Z,15.03
2023-03-16T08:20:58.737Z,16.67
2023-03-16T08:23:26.192Z,13.93
2023-03-16T08:25:57.967Z,15.13
2023-03-16T08:28:26.253Z,15.10
2023-03-16T08:30:54.286Z,14.87
2023-03-16T08:33:23.172Z,17.13
2023-03-16T08:35:50.950Z,16.00
2023-03-16T08:38:19.353Z,14.63
2023-03-16T08:40:49.668Z,15.80
2023-03-16T08:43:17.635Z,14.47
2023-03-16T08:45:48.533Z,14.63
2023-03-16T08:48:15.930Z,14.53
2023-03-16T08:50:44.222Z,14.70
2023-03-16T08:53:12.614Z,16.17
2023-03-16T08:55:41.656Z,14.40
2023-03-16T08:58:10.543Z,16.60
2023-03-16T09:00:38.389Z,14.07
2023-03-16T09:03:06.235Z,15.07
2023-03-16T09:05:34.186Z,15.70
2023-03-16T09:08:01.821Z,21.07
2023-03-16T09:10:29.279Z,10.97
2023-03-16T09:12:56.843Z,17.83
2023-03-16T09:15:23.872Z,11.93
2023-03-16T09:17:51.084Z,13.87
2023-03-16T09:20:26.159Z,10.93
2023-03-16T09:22:55.638Z,12.27
2023-03-16T09:25:24.293Z,12.20
2023-03-16T09:27:51.647Z,12.33
2023-03-16T09:30:19.138Z,12.90
2023-03-16T09:32:48.946Z,11.13
2023-03-16T09:35:16.401Z,14.37
2023-03-16T09:37:45.355Z,13.30
2023-03-16T09:40:26.707Z,12.70
2023-03-16T09:43:27.561Z,10.67
2023-03-16T09:46:08.906Z,11.23
2023-03-16T09:48:37.756Z,11.97
2023-03-16T09:51:14.468Z,12.47
2023-03-16T09:53:42.137Z,13.17
2023-03-16T09:56:22.405Z,11.60
2023-03-16T09:58:49.438Z,16.77
2023-03-16T10:01:35.868Z,9.83
2023-03-16T10:04:25.092Z,11.20
2023-03-16T10:07:18.606Z,10.47
2023-03-16T10:10:14.996Z,9.70
2023-03-16T10:12:50.747Z,8.83
2023-03-16T10:15:23.325Z,10.17
2023-03-16T10:17:56.565Z,10.20
2023-03-16T10:20:24.901Z,10.17
2023-03-16T10:22:54.585Z,10.77
2023-03-16T10:25:44.336Z,10.50
2023-03-16T10:28:20.100Z,10.90
2023-03-16T10:30:50.259Z,9.93
2023-03-16T10:33:24.325Z,11.43
2023-03-16T10:36:31.391Z,9.23
2023-03-16T10:39:00.356Z,10.20
2023-03-16T10:41:32.728Z,119.60
2023-03-16T10:44:12.394Z,9.10
2023-03-16T10:46:40.948Z,12.47
2023-03-16T10:49:22.841Z,9.53
2023-03-16T10:51:49.967Z,9.27
2023-03-16T10:54:29.632Z,10.83
2023-03-16T10:56:57.723Z,7.73
2023-03-16T10:59:33.444Z,8.00
2023-03-16T11:02:17.491Z,12.37
2023-03-16T11:04:44.643Z,7.40
2023-03-16T11:07:17.823Z,9.17
2023-03-16T11:09:45.516Z,10.67
2023-03-16T11:12:30.292Z,10.23
2023-03-16T11:15:23.773Z,7.40
2023-03-16T11:17:55.905Z,14.43
2023-03-16T11:20:26.834Z,10.17
2023-03-16T11:22:53.804Z,18.07
2023-03-16T11:25:47.092Z,22.90
2023-03-16T11:28:27.192Z,7.03
2023-03-16T11:31:04.831Z,7.80
2023-03-16T11:33:34.997Z,8.53
2023-03-16T11:36:13.356Z,5.53
2023-03-16T11:39:05.811Z,9.57
2023-03-16T11:41:47.068Z,7.60
2023-03-16T11:44:33.536Z,6.20
2023-03-16T11:47:06.689Z,7.73
2023-03-16T11:49:45.828Z,8.77
2023-03-16T11:52:42.693Z,5.97
2023-03-16T11:55:29.015Z,7.70
2023-03-16T11:58:30.163Z,9.73
2023-03-16T12:01:19.984Z,4.90
2023-03-16T12:04:08.142Z,6.90
2023-03-16T12:06:47.180Z,6.53
2023-03-16T12:09:48.252Z,6.57
2023-03-16T12:12:38.259Z,7.70
2023-03-16T12:15:21.583Z,6.10
2023-03-16T12:17:54.077Z,10.30
2023-03-16T12:20:29.487Z,7.50
2023-03-16T12:23:03.560Z,10.10
2023-03-16T12:25:35.001Z,7.50
2023-03-16T12:28:07.694Z,6.70
2023-03-16T12:30:59.873Z,4.63
2023-03-16T12:33:53.679Z,4.83
2023-03-16T12:36:56.980Z,5.33
2023-03-16T12:39:56.159Z,4.70
2023-03-16T12:42:35.914Z,5.40
2023-03-16T12:45:30.281Z,5.63
2023-03-16T12:48:00.905Z,7.23
2023-03-16T12:50:27.912Z,6.17
2023-03-16T12:52:55.049Z,6.18
2023-03-16T12:55:37.151Z,5.78
2023-03-16T12:58:08.754Z,5.10
2023-03-16T13:00:38.898Z,8.38
2023-03-16T13:03:12.089Z,4.72
2023-03-16T13:05:46.543Z,5.28
2023-03-16T13:08:21.558Z,6.90
2023-03-16T13:11:24.436Z,9.05
2023-03-16T13:14:01.903Z,21.23
2023-03-16T13:16:34.175Z,14.45
2023-03-16T13:19:01.434Z,8.60
2023-03-16T13:21:38.194Z,6.50
2023-03-16T13:24:18.174Z,4.03
2023-03-16T13:26:50.406Z,6.57
2023-03-16T13:29:28.700Z,6.13
2023-03-16T13:32:02.443Z,5.03
2023-03-16T13:34:39.553Z,7.38
2023-03-16T13:37:15.288Z,7.43
2023-03-16T13:39:42.244Z,13.53
2023-03-16T13:42:09.825Z,12.43
2023-03-16T13:44:41.346Z,5.55
2023-03-16T13:47:08.629Z,9.85
2023-03-16T13:49:47.434Z,7.15
2023-03-16T13:52:25.690Z,4.68
2023-03-16T13:54:53.365Z,7.18
2023-03-16T13:57:24.234Z,8.02
2023-03-16T13:59:51.284Z,6.68
2023-03-16T14:02:20.820Z,9.75
2023-03-16T14:04:48.258Z,6.43
2023-03-16T14:07:17.693Z,6.10
2023-03-16T14:09:46.826Z,7.68
2023-03-16T14:12:15.501Z,5.70
2023-03-16T14:14:42.993Z,8.10
2023-03-16T14:17:16.533Z,9.65
2023-03-16T14:19:53.156Z,7.75
2023-03-16T14:22:35.354Z,4.05
2023-03-16T14:25:04.794Z,8.38
2023-03-16T14:27:38.986Z,8.03
2023-03-16T14:30:32.235Z,6.80
2023-03-16T14:33:04.824Z,8.00
2023-03-16T14:35:40.879Z,7.85
2023-03-16T14:38:28.953Z,8.15
2023-03-16T14:41:13.443Z,6.30
2023-03-16T14:43:47.869Z,39.97
2023-03-16T14:46:19.784Z,19.80
2023-03-16T14:48:46.821Z,8.73
2023-03-16T14:51:14.884Z,8.27
2023-03-16T14:53:41.828Z,9.95
2023-03-16T14:56:13.695Z,27.77
2023-03-16T14:58:41.931Z,6.72
2023-03-16T15:01:16.435Z,9.25
2023-03-16T15:03:44.232Z,6.13
2023-03-16T15:06:11.600Z,10.18
2023-03-16T15:08:44.556Z,5.95
2023-03-16T15:11:12.036Z,9.17
2023-03-16T15:13:42.318Z,6.40
2023-03-16T15:16:14.404Z,5.80
2023-03-16T15:18:42.036Z,8.33
2023-03-16T15:21:14.682Z,5.32
2023-03-16T15:23:43.488Z,7.63
2023-03-16T15:26:15.543Z,8.00
2023-03-16T15:28:43.095Z,7.13
2023-03-16T15:31:16.668Z,8.70
2023-03-16T15:33:45.391Z,14.53
2023-03-16T15:36:16.253Z,12.80
2023-03-16T15:38:46.658Z,259.30
2023-03-16T15:41:14.437Z,160.73
2023-03-16T15:43:42.073Z,7.43
2023-03-16T15:46:10.670Z,20.33
2023-03-16T15:48:37.717Z,7.10
2023-03-16T15:51:16.928Z,9.43
2023-03-16T15:53:51.448Z,9.30
2023-03-16T15:56:29.942Z,6.33
2023-03-16T15:59:02.440Z,6.83
2023-03-16T16:01:34.929Z,9.57
2023-03-16T16:04:02.129Z,7.27
2023-03-16T16:06:30.553Z,8.97
2023-03-16T16:08:57.526Z,6.77
2023-03-16T16:11:26.589Z,10.00
2023-03-16T16:13:55.890Z,7.60
2023-03-16T16:16:23.722Z,12.20
2023-03-16T16:18:50.950Z,6.83
2023-03-16T16:21:23.214Z,9.03
2023-03-16T16:23:52.373Z,7.13
2023-03-16T16:26:27.876Z,6.33
2023-03-16T16:28:59.336Z,7.00
2023-03-16T16:31:29.323Z,12.60
2023-03-16T16:33:56.576Z,8.23
2023-03-16T16:36:25.344Z,6.50
2023-03-16T16:38:52.654Z,8.57
2023-03-16T16:41:30.734Z,6.47
2023-03-16T16:43:58.043Z,7.90
2023-03-16T16:46:28.679Z,10.40
2023-03-16T16:49:07.182Z,9.10
2023-03-16T16:51:35.591Z,9.37
2023-03-16T16:54:04.862Z,32.97
2023-03-16T16:56:35.397Z,8.40
2023-03-16T16:59:15.984Z,39.07
2023-03-16T17:01:43.165Z,56.27
2023-03-16T17:04:17.756Z,10.43
2023-03-16T17:06:45.958Z,7.47
2023-03-16T17:09:16.303Z,6.77
2023-03-16T17:11:44.946Z,7.10
2023-03-16T17:14:17.038Z,6.87
2023-03-16T17:16:44.877Z,13.83
2023-03-16T17:19:27.220Z,7.20
2023-03-16T17:21:57.375Z,13.20
2023-03-16T17:24:25.328Z,9.17
2023-03-16T17:26:55.493Z,6.47
2023-03-16T17:29:27.489Z,8.67
2023-03-16T17:31:54.809Z,10.37
2023-03-16T17:34:23.258Z,7.47
2023-03-16T17:36:51.310Z,7.97
2023-03-16T17:39:21.125Z,7.83
2023-03-16T17:42:12.209Z,5.90
2023-03-16T17:44:49.920Z,8.13
2023-03-16T17:47:28.310Z,7.03
2023-03-16T17:49:57.012Z,10.33
2023-03-16T17:52:26.351Z,7.57
2023-03-16T17:54:54.300Z,5.70
2023-03-16T17:57:32.176Z,5.73
2023-03-16T18:00:01.561Z,4.93
2023-03-16T18:02:43.846Z,11.90
2023-03-16T18:05:40.519Z,6.87
2023-03-16T18:08:16.314Z,4.37
2023-03-16T18:10:45.050Z,8.07
2023-03-16T18:13:20.340Z,5.70
2023-03-16T18:15:48.706Z,4.30
2023-03-16T18:18:21.474Z,5.90
2023-03-16T18:20:54.931Z,5.47
2023-03-16T18:23:24.141Z,4.20
2023-03-16T18:25:54.065Z,4.43
2023-03-16T18:28:22.057Z,6.53
2023-03-16T18:30:52.864Z,6.47
2023-03-16T18:33:27.612Z,8.23
2023-03-16T18:35:57.382Z,6.97
2023-03-16T18:38:24.252Z,6.23
2023-03-16T18:40:51.332Z,4.97
2023-03-16T18:43:18.515Z,7.30
2023-03-16T18:45:46.521Z,5.73
2023-03-16T18:48:39.793Z,11.90
2023-03-16T18:51:15.428Z,6.50
2023-03-16T18:53:42.723Z,4.50
2023-03-16T18:56:21.961Z,6.28
2023-03-16T18:58:50.503Z,17.40
2023-03-16T19:01:32.481Z,14.70
2023-03-16T19:04:02.145Z,7.17
2023-03-16T19:06:35.104Z,5.47
2023-03-16T19:09:27.143Z,5.43
2023-03-16T19:11:54.841Z,7.90
2023-03-16T19:14:24.798Z,5.33
2023-03-16T19:16:54.049Z,4.13
2023-03-16T19:19:23.892Z,5.03
2023-03-16T19:21:53.881Z,6.27
2023-03-16T19:24:35.230Z,5.70
2023-03-16T19:27:03.626Z,9.17
2023-03-16T19:29:35.297Z,9.53
2023-03-16T19:32:02.636Z,8.20
2023-03-16T19:34:29.828Z,8.50
2023-03-16T19:36:56.790Z,8.67
2023-03-16T19:39:24.487Z,6.23
2023-03-16T19:41:58.063Z,5.50
2023-03-16T19:44:27.613Z,8.83
2023-03-16T19:46:55.302Z,6.50
2023-03-16T19:49:26.106Z,10.73
2023-03-16T19:51:55.239Z,5.70
2023-03-16T19:54:23.510Z,7.37
2023-03-16T19:56:52.608Z,6.10
2023-03-16T19:59:20.389Z,7.23
2023-03-16T20:01:47.942Z,7.77
2023-03-16T20:04:22.233Z,7.93
2023-03-16T20:06:50.096Z,6.87
2023-03-16T20:09:18.002Z,13.30
2023-03-16T20:11:45.679Z,6.70
2023-03-16T20:14:24.116Z,7.87
2023-03-16T20:16:51.284Z,11.10
2023-03-16T20:19:20.836Z,6.43
2023-03-16T20:21:49.104Z,7.00
2023-03-16T20:24:18.236Z,7.20
2023-03-16T20:26:46.654Z,11.13
2023-03-16T20:29:29.223Z,12.23
2023-03-16T20:31:57.024Z,6.40
2023-03-16T20:34:30.853Z,7.67
2023-03-16T20:36:57.942Z,9.63
2023-03-16T20:39:24.953Z,6.50
2023-03-16T20:41:52.259Z,10.07
2023-03-16T20:44:20.899Z,7.30
2023-03-16T20:46:48.137Z,8.53
2023-03-16T20:49:30.111Z,8.20
2023-03-16T20:51:57.063Z,7.13
2023-03-16T20:54:24.038Z,9.83
2023-03-16T20:56:51.116Z,6.80
2023-03-16T20:59:22.986Z,12.43
2023-03-16T21:01:50.464Z,8.00
2023-03-16T21:04:27.949Z,6.37
2023-03-16T21:06:56.131Z,9.53
2023-03-16T21:09:23.130Z,7.10
2023-03-16T21:11:50.498Z,8.53
2023-03-16T21:14:20.920Z,8.17
2023-03-16T21:16:48.762Z,6.30
2023-03-16T21:19:18.797Z,11.37
2023-03-16T21:21:46.552Z,7.13
2023-03-16T21:24:13.685Z,6.80
2023-03-16T21:26:42.847Z,7.87
2023-03-16T21:29:24.295Z,6.53
2023-03-16T21:31:51.958Z,5.80
2023-03-16T21:34:25.609Z,7.13
2023-03-16T21:36:52.677Z,9.83
2023-03-16T21:39:22.660Z,5.40
2023-03-16T21:41:50.879Z,6.93
2023-03-16T21:44:18.569Z,7.47
2023-03-16T21:46:47.493Z,9.53
2023-03-16T21:49:14.907Z,9.33
2023-03-16T21:51:43.358Z,7.03
2023-03-16T21:54:18.007Z,7.90
2023-03-16T21:56:46.153Z,8.00
2023-03-16T21:59:13.483Z,9.90
2023-03-16T22:01:58.360Z,9.73
2023-03-16T22:04:28.044Z,8.13
2023-03-16T22:06:55.447Z,8.23
2023-03-16T22:09:25.128Z,7.30
2023-03-16T22:11:52.146Z,9.33
2023-03-16T22:14:19.025Z,8.87
2023-03-16T22:16:47.463Z,7.30
2023-03-16T22:19:15.954Z,12.73
2023-03-16T22:21:44.392Z,7.80
2023-03-16T22:24:17.964Z,8.03
2023-03-16T22:26:46.396Z,7.90
2023-03-16T22:29:22.125Z,6.80
2023-03-16T22:31:50.435Z,8.10
2023-03-16T22:34:47.935Z,6.80
2023-03-16T22:37:19.613Z,8.93
2023-03-16T22:39:47.466Z,9.87
2023-03-16T22:42:24.308Z,8.73
2023-03-16T22:44:51.279Z,8.73
2023-03-16T22:47:26.981Z,11.33
2023-03-16T22:49:54.341Z,8.17
2023-03-16T22:52:28.125Z,8.60
2023-03-16T22:54:55.583Z,8.87
2023-03-16T22:57:22.989Z,10.90
2023-03-16T22:59:51.435Z,7.17
2023-03-16T23:02:24.443Z,10.13
2023-03-16T23:04:51.670Z,8.03
2023-03-16T23:07:19.813Z,8.60
2023-03-16T23:09:48.549Z,11.67
2023-03-16T23:12:20.582Z,9.57
2023-03-16T23:14:47.824Z,11.17
2023-03-16T23:17:20.715Z,8.97
2023-03-16T23:19:48.292Z,8.23
2023-03-16T23:22:16.000Z,6.43
2023-03-16T23:24:43.321Z,8.87
2023-03-16T23:27:21.535Z,8.57
2023-03-16T23:29:48.862Z,12.07
2023-03-16T23:32:17.216Z,15.33
2023-03-16T23:34:44.619Z,11.47
2023-03-16T23:37:12.001Z,16.13
2023-03-16T23:39:39.992Z,9.50
2023-03-16T23:42:07.654Z,8.57
2023-03-16T23:44:35.087Z,8.83
2023-03-16T23:47:02.401Z,9.07
2023-03-16T23:49:33.050Z,7.93
2023-03-16T23:52:01.922Z,10.77
2023-03-16T23:54:32.908Z,7.10
2023-03-16T23:56:59.864Z,8.17
2023-03-16T23:59:27.570Z,10.43
